• Join FlightAware (Why Join?)
  • Login
  • US Flag 
12:26PM EDT


 

Airport Tracker/Info


-or-


 

Live Flight TrackerFlight Track Log ✈ CFS775 ✈ 09-May-2013 ✈ KPHX - KFLG

Flight Track Log - Related Links

Times and Time Zones

All times are in EDT time to prevent confusion due to time zone crossing. See the CFS775 flight status page for this flight to view local times or setup timezone preferences in your user account.

Time Position Orientation Groundspeed Altitude Reporting Facility
EDT Latitude Longitude Course Direction KTS MPH feet Rate Location/Type
10:31AM 33.4333 -112.0000 40° Northeast 95 109 1,900  Level Phoenix TRACON
10:32AM 33.4500 -111.9833 40° Northeast 96 110 2,500 900 Climbing Phoenix TRACON
10:33AM 33.4650 -111.9794 12° North 98 113 3,300 900 Climbing Albuquerque Center
10:34AM 33.4972 -111.9717 11° North 107 123 4,300 1,020 Climbing Albuquerque Center
10:35AM 33.5367 -111.9672 North 115 132 5,500 780 Climbing Albuquerque Center
10:36AM 33.5717 -111.9614 North 125 144 6,000 240 Climbing Albuquerque Center
10:37AM 33.6175 -111.9522 North 158 182 6,000  Level Albuquerque Center
10:38AM 33.6642 -111.9422 10° North 168 193 6,000 240 Level Albuquerque Center
10:39AM 33.7094 -111.9342 North 167 192 6,500 480 Climbing Albuquerque Center
10:40AM 33.7478 -111.9283 North 146 168 7,000 480 Climbing Albuquerque Center
10:41AM 33.7981 -111.9189 North 151 174 7,600 480 Climbing Albuquerque Center
10:42AM 33.8400 -111.9117 North 152 175 8,100 420 Climbing Albuquerque Center
10:43AM 33.8831 -111.9033 North 154 177 8,500 180 Climbing Albuquerque Center
10:44AM 33.9278 -111.8950 North 159 183 8,500 -60 Level Albuquerque Center
10:45AM 33.9767 -111.8850 10° North 172 198 8,400 -60 Descending Albuquerque Center
10:46AM 34.0242 -111.8761 North 171 197 8,400  Level Albuquerque Center
10:47AM 34.0711 -111.8683 North 168 193 8,400  Level Albuquerque Center
10:49AM 33.4938 -111.9999 31° Northeast  Level Estimated
10:56AM 33.8100 -111.9374 29° Northeast  Level Estimated
10:57AM 33.8516 -111.9144 25° Northeast  Level FlightAware Approximate
10:58AM 33.8932 -111.8913 25° Northeast  Level FlightAware Approximate
10:59AM 33.9348 -111.8682 25° Northeast  Level FlightAware Approximate
11:00AM 33.9801 -111.8609 354° North  Level Estimated
11:01AM 34.0230 -111.8416 20° North  Level FlightAware Approximate
11:02AM 34.0659 -111.8223 20° North  Level FlightAware Approximate
11:03AM 34.1114 -111.8159 350° North  Level Estimated
11:04AM 34.1556 -111.8015 15° North  Level FlightAware Approximate
11:05AM 34.1998 -111.7870 15° North  Level FlightAware Approximate
11:06AM 34.2453 -111.7813 345° North  Level Estimated
11:07AM 34.2905 -111.7721 10° North  Level FlightAware Approximate
11:08AM 34.3356 -111.7629 10° North  Level FlightAware Approximate
11:09AM 34.3808 -111.7537 10° North  Level FlightAware Approximate
11:10AM 34.4264 -111.7487 351° North  Level Estimated
11:11AM 34.4720 -111.7435 North  Level FlightAware Approximate
11:12AM 34.5175 -111.7382 North  Level FlightAware Approximate
11:13AM 34.5631 -111.7329 North  Level FlightAware Approximate
11:14AM 34.6087 -111.7280 North  Level Estimated
11:15AM 34.6543 -111.7229 North  Level Estimated
11:16AM 34.6999 -111.7179 North  Level Estimated
11:17AM 34.7455 -111.7129 North  Level Estimated
11:18AM 34.7911 -111.7079 North  Level Estimated
11:19AM 34.8367 -111.7029 North  Level Estimated
11:20AM 34.8823 -111.6978 North  Level Estimated
11:21AM 34.9279 -111.6928 North  Level Estimated
11:22AM 34.9735 -111.6878 North  Level Estimated
11:23AM 35.0191 -111.6827 North  Level Estimated
11:24AM 35.0647 -111.6776 North  Level Estimated
11:25AM 35.1103 -111.6726 North  Level Estimated
11:26AM 35.1333 -111.6667 North  Level FlightAware Approximate
11:27AM 35.1403 -111.6693 North  Level Estimated
11:28AM 35.1403 -111.6693 North  Level Estimated
11:29AM 35.1403 -111.6693 North  Level Estimated